Time;durP1;ratioP1;P1;durP2;ratioP2;P2;SDS_P1;SDS_P2;PMS_P1;PMS_P2;Temp;Humidity;BMP_temperature;BMP_pressure;BME280_temperature;BME280_humidity;BME280_pressure;Samples;Min_cycle;Max_cycle;Signal;HPM_P1;HPM_P2
2023/03/29 00:00:01;;;;;;;4.45;2.45;;;;;;;7.04;65.13;100468.44;5058415;28;20053;-62
2023/03/29 00:02:31;;;;;;;5.28;2.53;;;;;;;7.06;65.86;100473.69;5063271;28;20052;-62
2023/03/29 00:05:00;;;;;;;;;;;;;;;7.02;65.52;100476.22;5054953;28;20056;-62
2023/03/29 00:07:28;;;;;;;4.43;2.80;;;;;;;6.97;65.38;100464.34;5068571;28;19931;-62
2023/03/29 00:09:56;;;;;;;4.53;2.42;;;;;;;6.97;65.48;100456.03;5060555;28;20048;-63
2023/03/29 00:12:25;;;;;;;5.05;2.92;;;;;;;7.00;64.85;100449.94;5066557;28;20048;-62
2023/03/29 00:14:56;;;;;;;3.83;2.70;;;;;;;6.98;64.85;100446.63;5061368;28;20413;-62
2023/03/29 00:17:23;;;;;;;4.03;2.60;;;;;;;7.02;64.74;100442.97;5068552;28;20479;-62
2023/03/29 00:19:50;;;;;;;5.65;2.75;;;;;;;7.05;65.06;100445.16;5068829;28;20059;-62
2023/03/29 00:22:17;;;;;;;4.20;2.63;;;;;;;7.11;64.52;100429.31;5055836;28;20405;-62
2023/03/29 00:24:46;;;;;;;4.28;2.40;;;;;;;7.16;64.38;100425.66;5061869;28;20051;-62
2023/03/29 00:27:13;;;;;;;3.90;2.58;;;;;;;7.08;64.63;100430.72;5055839;28;20056;-62
2023/03/29 00:29:42;;;;;;;4.13;2.80;;;;;;;7.13;65.12;100427.09;5072184;28;20040;-62
2023/03/29 00:32:09;;;;;;;4.55;2.50;;;;;;;7.13;64.22;100424.31;5062298;28;20051;-60
2023/03/29 00:34:36;;;;;;;3.80;2.35;;;;;;;7.02;64.07;100418.06;5059302;28;20053;-61
2023/03/29 00:37:07;;;;;;;4.78;2.70;;;;;;;7.01;63.94;100426.63;5061949;28;20433;-60
2023/03/29 00:39:36;;;;;;;5.63;2.92;;;;;;;7.09;64.58;100423.25;5058983;28;20347;-61
2023/03/29 00:42:03;;;;;;;4.93;2.53;;;;;;;7.06;63.92;100426.59;5068336;28;20048;-61
2023/03/29 00:45:01;;;;;;;3.47;2.38;;;;;;;7.17;63.99;100417.06;5070941;28;20053;-60
2023/03/29 00:47:32;;;;;;;3.75;2.20;;;;;;;7.15;63.54;100424.84;5062479;28;20052;-60
2023/03/29 00:50:04;;;;;;;3.22;2.00;;;;;;;7.16;63.47;100417.34;5062257;28;20044;-61
2023/03/29 00:52:33;;;;;;;3.83;2.25;;;;;;;7.24;63.99;100409.22;5062902;28;20055;-61
2023/03/29 00:55:06;;;;;;;4.10;2.40;;;;;;;7.21;63.87;100409.81;5064999;28;20075;-61
2023/03/29 00:57:34;;;;;;;3.95;2.45;;;;;;;7.31;63.34;100404.19;5060474;28;20056;-61
2023/03/29 01:00:08;;;;;;;4.78;2.35;;;;;;;7.31;62.94;100400.59;5055487;28;20044;-61
2023/03/29 01:02:38;;;;;;;3.70;2.13;;;;;;;7.41;62.94;100402.41;5071314;28;20072;-61
2023/03/29 01:05:10;;;;;;;3.25;2.30;;;;;;;7.44;63.89;100393.50;5066638;28;20051;-61
2023/03/29 01:07:46;;;;;;;5.95;2.60;;;;;;;7.44;62.91;100399.06;5052274;28;20045;-62
2023/03/29 01:10:24;;;;;;;2.72;2.08;;;;;;;7.52;63.03;100387.31;5061536;28;20056;-61
2023/03/29 01:12:56;;;;;;;3.33;2.22;;;;;;;7.41;63.75;100385.78;5067333;28;20057;-61
2023/03/29 01:15:27;;;;;;;5.05;2.50;;;;;;;7.41;62.93;100389.38;5070419;28;20063;-61
2023/03/29 01:17:56;;;;;;;3.30;2.05;;;;;;;7.45;62.71;100384.06;5064872;28;20053;-61
2023/03/29 01:20:34;;;;;;;3.42;2.10;;;;;;;7.53;62.78;100380.63;5068392;28;20056;-61
2023/03/29 01:23:15;;;;;;;4.18;2.45;;;;;;;7.58;62.71;100377.81;5070845;28;20052;-62
2023/03/29 01:25:53;;;;;;;3.83;2.30;;;;;;;7.54;62.88;100368.44;5060566;28;20053;-62
2023/03/29 01:28:27;;;;;;;3.83;2.42;;;;;;;7.58;61.82;100380.59;5059683;28;20063;-61
2023/03/29 01:31:00;;;;;;;3.67;2.30;;;;;;;7.64;62.27;100375.78;5063503;28;20059;-61
2023/03/29 01:33:31;;;;;;;3.15;2.13;;;;;;;7.68;61.71;100369.34;5069800;28;20056;-60
2023/03/29 01:36:06;;;;;;;3.58;2.53;;;;;;;7.78;61.61;100360.06;5070207;28;20056;-61
2023/03/29 01:38:40;;;;;;;4.30;2.03;;;;;;;7.80;61.78;100360.59;5055212;28;20076;-61
2023/03/29 01:41:09;;;;;;;5.75;2.67;;;;;;;7.78;61.42;100359.25;5062450;28;20056;-60
2023/03/29 01:43:44;;;;;;;3.95;2.30;;;;;;;7.84;60.59;100360.84;5062976;28;20044;-61
2023/03/29 01:46:19;;;;;;;5.55;2.92;;;;;;;7.81;61.86;100350.31;5062093;28;20075;-62
2023/03/29 01:48:56;;;;;;;3.33;2.25;;;;;;;7.73;61.39;100344.34;5072892;28;20055;-61
2023/03/29 01:51:29;;;;;;;4.82;2.47;;;;;;;7.89;59.98;100344.94;5063985;28;20072;-62
2023/03/29 01:54:03;;;;;;;4.70;2.88;;;;;;;7.87;60.30;100346.34;5067534;28;20528;-61
2023/03/29 01:56:35;;;;;;;4.00;2.33;;;;;;;7.89;60.90;100338.56;5064941;28;20052;-61
2023/03/29 01:59:11;;;;;;;3.40;2.28;;;;;;;7.84;60.63;100333.09;5061117;28;20048;-61
2023/03/29 02:01:47;;;;;;;3.75;2.20;;;;;;;7.95;59.91;100326.28;5064686;28;20059;-61
2023/03/29 02:04:18;;;;;;;5.22;2.38;;;;;;;7.95;60.36;100323.50;5064850;28;20060;-61
2023/03/29 02:06:49;;;;;;;2.67;1.95;;;;;;;7.97;59.94;100312.13;5064830;28;20056;-61
2023/03/29 02:09:16;;;;;;;3.95;2.20;;;;;;;8.00;61.04;100306.78;5072207;28;20060;-60
2023/03/29 02:11:48;;;;;;;4.95;2.20;;;;;;;7.97;60.18;100307.38;5075673;28;20052;-60
2023/03/29 02:14:16;;;;;;;3.38;2.20;;;;;;;8.03;60.38;100305.34;5076251;28;20048;-60
2023/03/29 02:16:45;;;;;;;2.93;2.10;;;;;;;8.02;59.99;100303.69;5073454;28;20049;-60
2023/03/29 02:19:14;;;;;;;3.70;2.47;;;;;;;7.97;59.97;100290.75;5075817;28;20421;-60
2023/03/29 02:21:47;;;;;;;3.45;2.30;;;;;;;7.91;60.04;100294.72;5075817;28;20049;-60
2023/03/29 02:24:20;;;;;;;4.60;2.40;;;;;;;7.91;60.37;100292.75;5074236;28;20048;-60
2023/03/29 02:26:48;;;;;;;4.07;2.53;;;;;;;7.84;59.89;100286.78;5076209;28;20052;-60
2023/03/29 02:29:17;;;;;;;4.03;2.47;;;;;;;7.84;60.38;100297.06;5074164;28;20064;-60
2023/03/29 02:31:51;;;;;;;3.88;2.20;;;;;;;7.85;60.01;100298.69;5075658;28;20427;-60
2023/03/29 02:34:23;;;;;;;3.90;2.38;;;;;;;7.89;59.66;100303.31;5075742;28;20052;-60
2023/03/29 02:36:53;;;;;;;4.95;2.22;;;;;;;7.97;60.41;100301.84;5075544;28;20056;-60
2023/03/29 02:39:24;;;;;;;4.72;2.40;;;;;;;7.86;59.73;100303.13;5072705;28;20052;-60
2023/03/29 02:41:53;;;;;;;3.97;2.42;;;;;;;7.94;60.37;100299.69;5075515;28;20059;-60
2023/03/29 02:44:24;;;;;;;2.85;1.85;;;;;;;8.06;58.78;100300.03;5075509;28;20052;-60
2023/03/29 02:46:56;;;;;;;4.00;2.30;;;;;;;8.01;58.89;100297.34;5075849;28;20413;-60
2023/03/29 02:49:24;;;;;;;5.35;2.75;;;;;;;8.06;58.47;100294.50;5075362;28;20055;-60
2023/03/29 02:51:55;;;;;;;3.90;2.05;;;;;;;7.98;59.74;100278.53;5075273;28;20056;-60
2023/03/29 02:54:28;;;;;;;5.90;2.30;;;;;;;7.99;59.76;100282.94;5072518;28;20060;-60
2023/03/29 02:56:58;;;;;;;4.03;2.42;;;;;;;8.02;59.05;100268.50;5075757;28;20053;-60
2023/03/29 02:59:28;;;;;;;4.80;2.20;;;;;;;8.12;58.25;100261.94;5074022;28;20405;-60
2023/03/29 03:01:55;;;;;;;5.63;2.60;;;;;;;8.14;58.73;100251.34;5075057;28;20052;-61
2023/03/29 03:04:24;;;;;;;4.25;2.20;;;;;;;8.13;57.98;100255.28;5075168;28;20052;-60
2023/03/29 03:06:51;;;;;;;3.15;2.40;;;;;;;8.17;58.24;100250.75;5075218;28;20052;-60
2023/03/29 03:09:19;;;;;;;4.15;2.20;;;;;;;8.18;58.33;100248.81;5071387;28;20053;-60
2023/03/29 03:11:46;;;;;;;3.10;2.40;;;;;;;8.19;58.38;100259.59;5074389;28;20493;-59
2023/03/29 03:14:13;;;;;;;4.65;2.10;;;;;;;8.21;59.36;100250.97;5074661;28;20056;-60
2023/03/29 03:16:42;;;;;;;3.42;1.88;;;;;;;8.12;59.29;100248.06;5074640;28;20056;-60
2023/03/29 03:19:10;;;;;;;3.85;2.38;;;;;;;8.19;58.89;100240.19;5074615;28;20052;-60
2023/03/29 03:21:38;;;;;;;3.50;2.20;;;;;;;8.09;58.18;100243.94;5074700;28;20048;-60
2023/03/29 03:24:06;;;;;;;4.20;2.22;;;;;;;8.15;59.50;100239.16;5071676;28;20417;-60
2023/03/29 03:26:34;;;;;;;3.40;2.38;;;;;;;8.08;59.55;100247.00;5074504;28;20056;-60
2023/03/29 03:29:02;;;;;;;4.53;2.17;;;;;;;8.10;58.33;100240.03;5074602;28;20469;-60
2023/03/29 03:31:29;;;;;;;5.80;2.70;;;;;;;8.10;59.26;100240.03;5074574;28;20060;-60
2023/03/29 03:34:00;;;;;;;4.07;2.10;;;;;;;8.06;58.52;100241.78;5074441;28;20055;-60
2023/03/29 03:36:30;;;;;;;3.08;2.20;;;;;;;8.10;58.67;100240.03;5074361;28;20060;-60
2023/03/29 03:38:57;;;;;;;3.50;2.00;;;;;;;8.11;58.93;100236.16;5072819;28;20508;-61
2023/03/29 03:41:25;;;;;;;4.93;2.40;;;;;;;8.12;59.32;100240.56;5074347;28;20048;-60
2023/03/29 03:43:53;;;;;;;3.78;2.15;;;;;;;8.13;59.20;100242.22;5074533;28;20059;-60
2023/03/29 03:46:22;;;;;;;3.25;2.13;;;;;;;8.08;59.74;100239.53;5074470;28;20508;-60
2023/03/29 03:48:50;;;;;;;6.03;2.50;;;;;;;8.08;59.31;100245.09;5073923;28;20052;-61
2023/03/29 03:51:18;;;;;;;3.88;2.22;;;;;;;8.16;58.79;100245.50;5074222;28;20044;-60
2023/03/29 03:53:49;;;;;;;3.33;2.22;;;;;;;8.20;59.65;100243.78;5072630;28;20055;-60
2023/03/29 03:56:17;;;;;;;3.35;2.22;;;;;;;8.17;59.19;100238.81;5074293;28;20436;-60
2023/03/29 03:58:44;;;;;;;3.00;2.13;;;;;;;8.19;58.75;100247.66;5074191;28;20056;-61
2023/03/29 04:01:11;;;;;;;3.38;2.13;;;;;;;8.25;58.77;100238.13;5074478;28;20500;-60
2023/03/29 04:03:39;;;;;;;3.47;2.22;;;;;;;8.23;59.37;100245.94;5074010;28;20060;-60
2023/03/29 04:06:06;;;;;;;3.60;2.20;;;;;;;8.29;58.88;100247.47;5072443;28;20413;-61
2023/03/29 04:08:35;;;;;;;3.70;2.28;;;;;;;8.30;58.94;100247.19;5071497;28;20045;-60
2023/03/29 04:11:03;;;;;;;4.57;2.73;;;;;;;8.34;58.52;100236.31;5073594;28;20052;-59
2023/03/29 04:13:30;;;;;;;2.67;1.85;;;;;;;8.32;58.22;100253.25;5073460;28;20057;-58
2023/03/29 04:15:57;;;;;;;3.35;2.17;;;;;;;8.30;58.13;100254.69;5073846;28;20048;-59
2023/03/29 04:18:25;;;;;;;3.55;2.03;;;;;;;8.28;58.66;100245.84;5073371;28;20053;-61
2023/03/29 04:20:52;;;;;;;3.95;2.28;;;;;;;8.36;59.38;100253.47;5071832;28;20048;-59
2023/03/29 04:23:19;;;;;;;4.20;2.17;;;;;;;8.37;59.51;100249.56;5070044;28;20060;-59
2023/03/29 04:25:48;;;;;;;5.43;2.42;;;;;;;8.39;59.79;100246.50;5072042;28;20053;-59
2023/03/29 04:28:15;;;;;;;4.22;2.15;;;;;;;8.41;59.62;100253.41;5055108;28;20060;-59
2023/03/29 04:30:43;;;;;;;4.00;2.40;;;;;;;8.40;60.64;100243.41;5053894;28;20057;-59
2023/03/29 04:33:10;;;;;;;4.22;2.50;;;;;;;8.46;60.31;100252.47;5053598;28;20056;-59
2023/03/29 04:35:38;;;;;;;3.53;2.55;;;;;;;8.42;59.23;100246.75;5053742;28;20064;-60
2023/03/29 04:38:08;;;;;;;5.47;2.33;;;;;;;8.44;60.53;100247.25;5056919;28;20059;-59
2023/03/29 04:40:36;;;;;;;3.00;2.08;;;;;;;8.41;60.22;100242.31;5073522;28;20477;-60
2023/03/29 04:43:05;;;;;;;5.70;2.65;;;;;;;8.44;60.29;100238.94;5073004;28;20063;-59
2023/03/29 04:45:32;;;;;;;3.43;2.27;;;;;;;8.39;61.12;100246.50;5073797;28;20053;-59
2023/03/29 04:47:59;;;;;;;3.70;2.20;;;;;;;8.40;62.08;100237.03;5072808;28;20052;-60
2023/03/29 04:50:26;;;;;;;3.85;2.22;;;;;;;8.49;62.14;100232.47;5073532;28;20071;-60
2023/03/29 04:52:54;;;;;;;3.65;2.20;;;;;;;8.48;62.04;100234.41;5068537;28;20405;-59
2023/03/29 04:55:21;;;;;;;4.55;2.88;;;;;;;8.48;61.32;100234.41;5071726;28;20052;-58
2023/03/29 04:57:48;;;;;;;4.35;2.63;;;;;;;8.47;61.19;100227.22;5073319;28;20074;-59
2023/03/29 05:00:19;;;;;;;4.07;2.28;;;;;;;8.48;61.55;100226.09;5073228;28;20055;-58
2023/03/29 05:02:47;;;;;;;5.45;2.83;;;;;;;8.47;61.90;100224.44;5072488;28;20052;-59
2023/03/29 05:05:14;;;;;;;5.22;2.85;;;;;;;8.57;61.53;100217.88;5072781;28;20049;-59
2023/03/29 05:07:41;;;;;;;4.78;2.85;;;;;;;8.51;60.47;100219.91;5070709;28;20382;-59
2023/03/29 05:10:09;;;;;;;4.43;2.40;;;;;;;8.54;62.06;100222.06;5072275;28;20493;-58
2023/03/29 05:12:36;;;;;;;4.88;2.20;;;;;;;8.55;61.44;100211.81;5072261;28;20313;-59
2023/03/29 05:15:04;;;;;;;3.42;2.40;;;;;;;8.56;61.34;100210.66;5072645;28;20052;-59
2023/03/29 05:17:33;;;;;;;4.63;2.45;;;;;;;8.60;59.85;100208.09;5072735;28;20056;-59
2023/03/29 05:20:05;;;;;;;3.78;2.58;;;;;;;8.51;61.50;100206.03;5072470;28;20409;-59
2023/03/29 05:22:33;;;;;;;4.28;2.58;;;;;;;8.52;60.91;100213.25;5069696;28;20056;-59
2023/03/29 05:25:00;;;;;;;5.00;2.78;;;;;;;8.53;61.62;100222.38;5071331;28;20397;-59
2023/03/29 05:27:28;;;;;;;3.30;2.40;;;;;;;8.54;61.36;100215.69;5071660;28;20052;-59
2023/03/29 05:29:55;;;;;;;4.97;2.70;;;;;;;8.60;60.27;100220.00;5072517;28;20056;-59
2023/03/29 05:32:23;;;;;;;3.90;2.70;;;;;;;8.74;60.14;100217.25;5072531;28;20059;-59
2023/03/29 05:34:51;;;;;;;5.30;3.15;;;;;;;8.72;61.24;100225.06;5072772;28;20052;-59
2023/03/29 05:37:19;;;;;;;4.75;2.90;;;;;;;8.74;59.60;100228.38;5072441;28;20162;-60
2023/03/29 05:39:47;;;;;;;3.97;3.17;;;;;;;8.74;60.47;100220.03;5070040;28;20063;-60
2023/03/29 05:42:14;;;;;;;5.45;3.00;;;;;;;8.68;59.92;100227.63;5071983;28;20056;-59
2023/03/29 05:44:42;;;;;;;6.75;2.83;;;;;;;8.66;61.01;100226.31;5072482;28;20048;-59
2023/03/29 05:47:09;;;;;;;4.28;3.13;;;;;;;8.73;61.23;100221.16;5072241;28;20052;-59
2023/03/29 05:49:36;;;;;;;4.28;2.78;;;;;;;8.70;60.16;100230.94;5072196;28;20052;-59
2023/03/29 05:52:05;;;;;;;6.22;3.63;;;;;;;8.74;60.87;100236.69;5072309;28;20486;-59
2023/03/29 05:54:32;;;;;;;4.60;3.17;;;;;;;8.80;61.89;100237.41;5070755;28;20127;-60
2023/03/29 05:57:00;;;;;;;4.43;3.50;;;;;;;8.83;63.05;100234.84;5071734;28;20052;-59
2023/03/29 05:59:28;;;;;;;4.93;3.20;;;;;;;8.76;63.57;100239.16;5071795;28;20401;-59
2023/03/29 06:01:56;;;;;;;4.32;3.15;;;;;;;8.73;63.23;100235.03;5071893;28;20067;-60
2023/03/29 06:04:23;;;;;;;5.63;3.30;;;;;;;8.79;63.89;100238.53;5072031;28;20059;-59
2023/03/29 06:06:51;;;;;;;5.82;3.70;;;;;;;8.54;65.21;100238.72;5072118;28;20053;-59
2023/03/29 06:09:20;;;;;;;4.78;3.20;;;;;;;8.62;63.98;100237.19;5069611;28;20053;-60
2023/03/29 06:11:47;;;;;;;4.82;3.35;;;;;;;8.74;63.90;100236.69;5071583;28;20052;-59
2023/03/29 06:14:14;;;;;;;7.63;3.40;;;;;;;8.76;64.03;100239.16;5071786;28;20474;-59
2023/03/29 06:16:42;;;;;;;6.22;3.90;;;;;;;8.82;65.07;100233.19;5071893;28;20513;-59
2023/03/29 06:19:09;;;;;;;4.60;3.15;;;;;;;8.87;64.72;100219.19;5072092;28;20056;-59
2023/03/29 06:21:36;;;;;;;7.68;3.45;;;;;;;8.84;66.06;100222.59;5071883;28;20049;-59
2023/03/29 06:24:05;;;;;;;5.53;3.35;;;;;;;8.82;65.07;100211.00;5069562;28;20064;-59
2023/03/29 06:26:34;;;;;;;6.30;3.35;;;;;;;9.00;65.01;100212.00;5071478;28;20064;-59
2023/03/29 06:29:03;;;;;;;5.15;3.00;;;;;;;9.11;64.84;100213.44;5071696;28;20060;-59
2023/03/29 06:31:30;;;;;;;5.53;3.17;;;;;;;9.30;65.49;100218.84;5072012;28;20520;-59
2023/03/29 06:33:58;;;;;;;5.05;3.40;;;;;;;9.39;64.73;100215.34;5073901;28;20465;-59
2023/03/29 06:36:25;;;;;;;5.32;3.15;;;;;;;9.44;65.06;100215.19;5075632;28;20521;-60
2023/03/29 06:38:53;;;;;;;5.82;3.63;;;;;;;9.59;63.92;100220.41;5072065;28;20056;-59
2023/03/29 06:41:20;;;;;;;6.93;3.67;;;;;;;9.73;63.34;100218.41;5057214;28;20405;-60
2023/03/29 06:43:48;;;;;;;3.85;3.10;;;;;;;9.88;63.38;100221.94;5055396;28;20049;-59
2023/03/29 06:46:16;;;;;;;5.13;3.25;;;;;;;9.83;63.10;100213.75;5055652;28;20053;-60
2023/03/29 06:48:43;;;;;;;6.88;3.47;;;;;;;10.01;62.04;100211.88;5074511;28;20059;-59
2023/03/29 06:51:11;;;;;;;6.65;4.03;;;;;;;10.08;61.87;100207.53;5075144;28;20406;-59
2023/03/29 06:53:39;;;;;;;4.95;3.65;;;;;;;10.07;61.80;100210.63;5072754;28;20048;-58
2023/03/29 06:56:07;;;;;;;6.32;3.80;;;;;;;10.27;62.38;100212.06;5074932;28;20072;-59
2023/03/29 06:58:35;;;;;;;6.35;3.75;;;;;;;10.19;61.19;100212.84;5075025;28;20413;-59
2023/03/29 07:01:04;;;;;;;8.02;4.10;;;;;;;10.40;61.78;100213.16;5074023;28;20052;-59
2023/03/29 07:03:33;;;;;;;6.65;3.60;;;;;;;10.40;60.80;100227.88;5075074;28;20059;-59
2023/03/29 07:06:03;;;;;;;6.45;3.65;;;;;;;10.49;60.12;100225.94;5074968;28;20052;-59
2023/03/29 07:08:30;;;;;;;8.18;4.20;;;;;;;10.63;60.92;100230.63;5072467;28;20505;-59
2023/03/29 07:10:58;;;;;;;5.30;3.80;;;;;;;10.72;60.52;100225.91;5070697;28;20045;-59
2023/03/29 07:13:26;;;;;;;6.15;3.30;;;;;;;10.78;60.42;100224.63;5068623;28;20048;-59
2023/03/29 07:15:53;;;;;;;6.35;3.30;;;;;;;11.04;59.43;100223.88;5073265;28;20048;-59
2023/03/29 07:18:22;;;;;;;7.72;3.38;;;;;;;10.95;59.25;100227.44;5073213;28;20044;-59
2023/03/29 07:20:50;;;;;;;5.60;3.03;;;;;;;10.94;58.34;100217.47;5074461;28;20155;-59
2023/03/29 07:23:18;;;;;;;5.70;3.25;;;;;;;10.92;58.76;100233.69;5071972;28;20158;-59
2023/03/29 07:25:46;;;;;;;6.82;3.55;;;;;;;10.79;59.12;100220.66;5073494;28;20544;-60
2023/03/29 07:28:13;;;;;;;5.07;2.60;;;;;;;10.80;59.00;100218.72;5074054;28;20049;-59
2023/03/29 07:30:40;;;;;;;4.07;2.90;;;;;;;10.68;59.40;100219.31;5073629;28;20060;-59
2023/03/29 07:33:08;;;;;;;4.32;2.70;;;;;;;10.85;59.09;100219.38;5071780;28;20053;-60
2023/03/29 07:35:37;;;;;;;6.55;3.08;;;;;;;10.87;58.64;100225.47;5073418;28;20041;-59
2023/03/29 07:38:04;;;;;;;6.25;2.80;;;;;;;10.99;57.99;100224.03;5073419;28;21226;-60
2023/03/29 07:40:32;;;;;;;5.22;2.55;;;;;;;10.91;58.36;100212.53;5070603;28;20409;-60
2023/03/29 07:43:00;;;;;;;6.68;2.90;;;;;;;11.02;57.70;100207.47;5072506;28;20402;-60
2023/03/29 07:45:28;;;;;;;5.97;2.97;;;;;;;11.16;57.16;100212.91;5053699;28;20076;-59
2023/03/29 07:47:57;;;;;;;6.03;2.65;;;;;;;11.17;56.70;100223.75;5063387;28;20508;-59
2023/03/29 07:50:25;;;;;;;4.30;2.58;;;;;;;11.35;56.46;100221.81;5074217;28;20394;-60
2023/03/29 07:52:55;;;;;;;3.60;2.50;;;;;;;11.23;56.83;100224.41;5074191;28;20052;-59
2023/03/29 07:55:22;;;;;;;5.28;2.90;;;;;;;11.29;56.80;100228.69;5069088;28;20055;-60
2023/03/29 07:57:50;;;;;;;5.07;2.80;;;;;;;11.30;56.71;100224.75;5067339;28;20060;-59
2023/03/29 08:00:18;;;;;;;6.47;3.03;;;;;;;11.39;56.07;100230.34;5069980;28;20079;-59
2023/03/29 08:02:48;;;;;;;5.40;3.53;;;;;;;11.33;56.30;100212.94;5070905;28;20394;-60
2023/03/29 08:05:16;;;;;;;7.90;3.10;;;;;;;11.53;55.39;100219.06;5069481;28;20437;-59
2023/03/29 08:07:45;;;;;;;6.68;2.65;;;;;;;11.51;55.72;100212.97;5072011;28;20486;-60
2023/03/29 08:10:16;;;;;;;4.10;2.83;;;;;;;11.40;56.09;100220.00;5064364;28;20049;-60
2023/03/29 08:12:44;;;;;;;3.78;2.45;;;;;;;11.42;55.87;100220.50;5064920;28;20071;-59
2023/03/29 08:15:12;;;;;;;5.60;2.70;;;;;;;11.53;56.06;100230.22;5062398;28;20413;-60
2023/03/29 08:17:40;;;;;;;4.97;2.60;;;;;;;11.57;55.66;100234.00;5061475;28;20056;-59
2023/03/29 08:20:10;;;;;;;4.78;2.88;;;;;;;11.56;55.46;100232.34;5063808;28;21080;-59
2023/03/29 08:22:38;;;;;;;5.30;2.67;;;;;;;11.48;55.62;100219.19;5064082;28;20060;-60
2023/03/29 08:25:07;;;;;;;5.97;2.50;;;;;;;11.62;55.38;100219.88;5068013;28;20490;-60
2023/03/29 08:27:37;;;;;;;3.53;2.20;;;;;;;11.90;54.60;100211.19;5067578;28;20049;-60
2023/03/29 08:30:05;;;;;;;4.47;2.75;;;;;;;12.34;53.42;100200.75;5065251;28;20072;-61
2023/03/29 08:32:32;;;;;;;4.75;2.70;;;;;;;12.75;52.38;100202.09;5066785;28;20640;-59
2023/03/29 08:35:02;;;;;;;4.30;2.35;;;;;;;13.03;51.57;100187.66;5065969;28;20401;-60
2023/03/29 08:37:30;;;;;;;;;;;;;;;13.44;50.87;100183.25;5063798;28;20071;-60
2023/03/29 08:39:57;;;;;;;4.00;2.60;;;;;;;13.68;50.73;100193.78;5064935;28;19946;-60
2023/03/29 08:42:48;;;;;;;3.90;2.40;;;;;;;13.86;49.90;100186.03;5065307;28;20052;-59
2023/03/29 08:45:25;;;;;;;6.78;2.80;;;;;;;14.46;47.99;100195.78;5056351;28;20044;-59
2023/03/29 08:48:03;;;;;;;6.85;2.70;;;;;;;14.30;47.99;100194.81;5065099;28;20052;-60
2023/03/29 08:50:35;;;;;;;5.95;2.58;;;;;;;14.14;48.01;100191.88;5054023;28;20060;-59
2023/03/29 08:53:06;;;;;;;6.03;2.50;;;;;;;14.31;47.09;100188.88;5066816;28;20497;-59
2023/03/29 08:55:40;;;;;;;4.22;2.25;;;;;;;14.44;47.52;100198.13;5068984;28;20501;-60
2023/03/29 08:58:15;;;;;;;5.13;2.50;;;;;;;14.50;47.73;100201.53;5066255;28;20485;-60
2023/03/29 09:00:45;;;;;;;7.28;2.63;;;;;;;14.30;48.34;100200.44;5073053;28;20052;-60
2023/03/29 09:03:20;;;;;;;5.35;2.60;;;;;;;13.89;48.66;100213.38;5070640;28;20528;-61
2023/03/29 09:05:51;;;;;;;5.72;2.75;;;;;;;13.92;48.77;100196.72;5071442;28;20457;-59
2023/03/29 09:08:21;;;;;;;4.28;2.42;;;;;;;13.78;49.87;100202.59;5065474;28;20178;-59
2023/03/29 09:11:02;;;;;;;5.10;3.10;;;;;;;13.48;50.84;100209.41;5061202;28;20057;-59
2023/03/29 09:13:37;;;;;;;5.38;2.50;;;;;;;13.08;51.34;100201.41;5064114;28;20493;-60
2023/03/29 09:16:10;;;;;;;3.65;2.35;;;;;;;13.07;51.86;100210.97;5066919;28;20048;-59
2023/03/29 09:18:49;;;;;;;4.47;2.25;;;;;;;13.11;52.28;100209.16;5068132;28;20049;-59
2023/03/29 09:21:21;;;;;;;5.22;2.88;;;;;;;12.93;52.69;100208.41;5067513;28;20052;-59
2023/03/29 09:24:02;;;;;;;7.13;2.60;;;;;;;13.00;52.76;100206.72;5068723;28;20061;-59
2023/03/29 09:26:38;;;;;;;5.00;2.70;;;;;;;13.09;53.17;100203.06;5072354;28;20057;-59
2023/03/29 09:29:25;;;;;;;4.90;2.72;;;;;;;13.09;52.87;100217.88;5072409;28;20059;-59
2023/03/29 09:31:56;;;;;;;3.85;2.35;;;;;;;13.16;53.48;100211.72;5070996;28;20390;-59
2023/03/29 09:34:29;;;;;;;5.07;2.70;;;;;;;13.13;53.78;100221.63;5056102;28;21144;-59
2023/03/29 09:37:02;;;;;;;7.07;2.92;;;;;;;13.39;52.71;100213.09;5063408;28;20045;-59
2023/03/29 09:39:30;;;;;;;5.60;2.72;;;;;;;13.47;53.14;100213.38;5061882;28;20044;-59
2023/03/29 09:42:02;;;;;;;6.00;2.58;;;;;;;13.44;53.90;100208.44;5055297;28;20409;-59
2023/03/29 09:44:37;;;;;;;7.00;2.70;;;;;;;13.53;53.68;100212.03;5056207;28;20151;-59
2023/03/29 09:47:09;;;;;;;5.97;3.05;;;;;;;13.50;53.41;100209.88;5069695;28;20041;-59
2023/03/29 09:49:40;;;;;;;4.88;2.75;;;;;;;13.67;52.98;100212.56;5064826;28;20056;-59
2023/03/29 09:52:12;;;;;;;5.88;2.70;;;;;;;14.00;53.27;100204.19;5069246;28;20063;-59
2023/03/29 09:54:40;;;;;;;5.90;3.05;;;;;;;14.21;51.90;100201.38;5066170;28;20058;-60
2023/03/29 09:57:11;;;;;;;5.85;3.15;;;;;;;14.07;52.07;100212.03;5065299;28;20056;-60
2023/03/29 09:59:40;;;;;;;6.05;3.50;;;;;;;13.92;52.59;100204.25;5061529;28;20048;-60
2023/03/29 10:02:09;;;;;;;6.25;3.38;;;;;;;13.96;53.01;100196.81;5061665;28;20052;-60
2023/03/29 10:04:37;;;;;;;4.32;2.88;;;;;;;13.97;52.52;100192.88;5069650;28;20055;-60
2023/03/29 10:07:06;;;;;;;6.32;3.08;;;;;;;14.01;52.50;100205.84;5070155;28;20060;-59
2023/03/29 10:09:34;;;;;;;3.97;2.90;;;;;;;14.52;52.04;100188.81;5063500;28;20056;-60
2023/03/29 10:12:05;;;;;;;6.30;3.08;;;;;;;15.22;49.91;100183.13;5074956;28;20053;-59
2023/03/29 10:14:37;;;;;;;6.90;3.20;;;;;;;15.52;49.48;100187.63;5075880;28;20040;-59
2023/03/29 10:17:13;;;;;;;7.25;3.10;;;;;;;15.47;49.02;100190.66;5075902;28;20044;-60
2023/03/29 10:19:48;;;;;;;4.95;2.90;;;;;;;15.29;49.05;100188.13;5076099;28;20052;-59
2023/03/29 10:22:19;;;;;;;4.05;2.63;;;;;;;15.19;49.97;100183.81;5072525;28;20048;-60
2023/03/29 10:24:51;;;;;;;5.45;3.00;;;;;;;15.16;49.94;100175.28;5075955;28;20486;-60
2023/03/29 10:27:22;;;;;;;5.70;2.83;;;;;;;15.17;49.18;100188.97;5075885;28;20064;-60
2023/03/29 10:29:51;;;;;;;5.75;3.00;;;;;;;15.25;49.34;100181.59;5075795;28;20071;-60
2023/03/29 10:32:28;;;;;;;5.28;2.83;;;;;;;15.30;49.85;100175.72;5075504;28;20049;-60
2023/03/29 10:35:04;;;;;;;6.88;2.72;;;;;;;15.30;49.47;100170.09;5075755;28;20056;-60
2023/03/29 10:37:31;;;;;;;5.55;2.65;;;;;;;15.41;49.53;100176.88;5072055;28;20036;-60
2023/03/29 10:39:58;;;;;;;5.07;2.50;;;;;;;15.41;49.24;100174.09;5075832;28;20405;-60
2023/03/29 10:42:26;;;;;;;5.47;2.78;;;;;;;15.78;48.86;100168.34;5075355;28;20049;-59
2023/03/29 10:44:54;;;;;;;4.50;2.50;;;;;;;15.97;47.69;100164.88;5075642;28;20053;-60
2023/03/29 10:47:24;;;;;;;3.78;2.67;;;;;;;16.14;48.29;100174.97;5075423;28;20052;-60
2023/03/29 10:49:53;;;;;;;5.93;3.08;;;;;;;16.13;48.25;100178.16;5075260;28;20056;-59
2023/03/29 10:52:21;;;;;;;;;;;;;;;16.39;47.40;100180.47;5073133;28;20425;-60
2023/03/29 10:54:51;;;;;;;5.40;2.85;;;;;;;16.36;47.60;100182.00;5075359;28;19924;-60
2023/03/29 10:57:30;;;;;;;5.47;2.70;;;;;;;16.39;47.40;100174.84;5075309;28;20052;-60
2023/03/29 11:00:05;;;;;;;6.67;3.07;;;;;;;16.39;47.68;100172.03;5075154;28;20486;-60
2023/03/29 11:03:07;;;;;;;5.05;2.67;;;;;;;16.94;46.45;100172.22;5075027;28;20135;-60
2023/03/29 11:05:41;;;;;;;4.20;2.50;;;;;;;17.46;45.93;100154.13;5075416;28;20079;-60
2023/03/29 11:08:25;;;;;;;4.25;2.35;;;;;;;17.77;44.70;100164.44;5071311;28;20059;-60
2023/03/29 11:11:02;;;;;;;5.03;2.75;;;;;;;18.02;44.14;100164.16;5074777;28;20052;-60
2023/03/29 11:13:40;;;;;;;4.60;2.40;;;;;;;17.78;44.22;100146.34;5074609;28;20056;-60
2023/03/29 11:16:18;;;;;;;4.60;2.58;;;;;;;18.58;42.21;100138.22;5074843;28;20413;-60
2023/03/29 11:19:12;;;;;;;3.53;2.30;;;;;;;18.72;42.26;100139.63;5072697;28;20568;-60
2023/03/29 11:21:50;;;;;;;6.25;2.78;;;;;;;18.90;43.07;100126.66;5063271;28;20049;-61
2023/03/29 11:24:45;;;;;;;5.25;2.45;;;;;;;18.99;41.43;100132.84;5070186;28;20049;-59
2023/03/29 11:27:22;;;;;;;3.17;2.17;;;;;;;18.69;42.42;100123.44;5071358;28;20044;-58
2023/03/29 11:30:02;;;;;;;3.88;2.40;;;;;;;19.25;41.11;100126.34;5067534;28;20059;-59
2023/03/29 11:32:36;;;;;;;4.30;2.33;;;;;;;18.79;42.59;100129.31;5065610;28;20053;-40
2023/03/29 11:35:22;;;;;;;3.03;2.15;;;;;;;18.90;43.09;100123.00;5072651;28;20057;-40
2023/03/29 11:37:55;;;;;;;4.55;2.40;;;;;;;18.34;45.16;100125.28;5065958;28;20044;-40
2023/03/29 11:40:38;;;;;;;5.30;3.17;;;;;;;18.79;44.26;100123.66;5069954;28;20067;-49
2023/03/29 11:43:12;;;;;;;5.80;2.70;;;;;;;19.47;41.83;100124.63;5068755;28;20478;-49
2023/03/29 11:45:46;;;;;;;4.95;2.50;;;;;;;21.62;38.36;100120.09;5068166;28;20482;-58